Time;durP1;ratioP1;P1;durP2;ratioP2;P2;SDS_P1;SDS_P2;PMS_P1;PMS_P2;Temp;Humidity;BMP_temperature;BMP_pressure;BME280_temperature;BME280_humidity;BME280_pressure;Samples;Min_cycle;Max_cycle;Signal;HPM_P1;HPM_P2
2023/03/18 00:01:46;;;;;;;3.97;3.15;;;9.30;99.90;;;;;;5046914;28;20025;-56
2023/03/18 00:04:12;;;;;;;5.65;3.80;;;9.30;99.90;;;;;;5045823;28;20071;-56
2023/03/18 00:06:39;;;;;;;5.97;3.90;;;9.30;99.90;;;;;;5047929;28;20032;-52
2023/03/18 00:09:04;;;;;;;5.40;3.50;;;9.30;99.90;;;;;;5042810;28;20020;-56
2023/03/18 00:11:30;;;;;;;6.55;3.80;;;9.30;99.90;;;;;;5040488;28;20452;-54
2023/03/18 00:13:57;;;;;;;4.65;3.33;;;9.20;99.90;;;;;;5044202;28;20025;-57
2023/03/18 00:16:22;;;;;;;5.28;2.90;;;9.20;99.90;;;;;;5046298;28;20111;-56
2023/03/18 00:18:48;;;;;;;3.95;3.08;;;9.20;99.90;;;;;;5044671;28;20155;-58
2023/03/18 00:21:15;;;;;;;3.92;3.28;;;9.20;99.90;;;;;;5048607;28;20502;-58
2023/03/18 00:23:41;;;;;;;5.28;3.00;;;9.20;99.90;;;;;;5046992;28;20376;-57
2023/03/18 00:26:08;;;;;;;5.45;3.42;;;9.20;99.90;;;;;;5040943;28;20043;-57
2023/03/18 00:28:35;;;;;;;4.60;2.80;;;9.20;99.90;;;;;;5043047;28;20029;-56
2023/03/18 00:31:07;;;;;;;5.13;3.28;;;9.20;99.90;;;;;;5045506;28;20062;-54
2023/03/18 00:33:38;;;;;;;3.92;3.05;;;9.10;99.90;;;;;;5047391;28;20087;-56
2023/03/18 00:36:05;;;;;;;3.15;2.67;;;9.10;99.90;;;;;;5037749;28;20138;-58
2023/03/18 00:38:34;;;;;;;3.25;2.60;;;9.10;99.90;;;;;;5045933;28;20497;-57
2023/03/18 00:41:14;;;;;;;3.33;3.03;;;9.10;99.90;;;;;;5043942;28;20020;-58
2023/03/18 00:43:52;;;;;;;3.30;3.00;;;9.10;99.90;;;;;;5039879;28;20048;-58
2023/03/18 00:46:22;;;;;;;6.38;2.95;;;9.10;99.90;;;;;;5040697;28;20021;-56
2023/03/18 00:48:48;;;;;;;3.20;2.88;;;9.00;99.90;;;;;;5041904;28;20044;-56
2023/03/18 00:51:15;;;;;;;3.80;2.83;;;9.00;99.90;;;;;;5039065;28;20064;-55
2023/03/18 00:53:43;;;;;;;3.13;2.78;;;9.10;99.90;;;;;;5045908;28;20021;-55
2023/03/18 00:56:10;;;;;;;5.93;3.25;;;9.00;99.90;;;;;;5039392;28;20028;-57
2023/03/18 00:58:36;;;;;;;6.50;3.35;;;9.00;99.90;;;;;;5039275;28;20025;-57
2023/03/18 01:01:03;;;;;;;8.15;3.40;;;9.10;99.90;;;;;;5042341;28;20021;-56
2023/03/18 01:03:30;;;;;;;3.63;2.88;;;9.10;99.90;;;;;;5043445;28;20054;-56
2023/03/18 01:05:56;;;;;;;6.22;3.00;;;9.10;99.90;;;;;;5047106;28;20025;-57
2023/03/18 01:08:23;;;;;;;3.65;2.70;;;9.10;99.90;;;;;;5044354;28;20056;-54
2023/03/18 01:10:49;;;;;;;4.03;2.70;;;9.10;99.90;;;;;;5044784;28;20347;-58
2023/03/18 01:13:14;;;;;;;7.20;3.22;;;9.10;99.90;;;;;;5042610;28;20037;-57
2023/03/18 01:15:41;;;;;;;4.13;3.33;;;9.10;99.90;;;;;;5043880;28;20037;-57
2023/03/18 01:18:07;;;;;;;3.33;2.78;;;9.10;99.90;;;;;;5041489;28;20408;-56
2023/03/18 01:20:34;;;;;;;3.95;3.10;;;9.10;99.90;;;;;;5043501;28;20063;-56
2023/03/18 01:23:00;;;;;;;4.05;3.22;;;9.10;99.90;;;;;;5045870;28;20535;-55
2023/03/18 01:25:26;;;;;;;4.22;2.92;;;9.10;99.90;;;;;;5038858;28;20100;-58
2023/03/18 01:27:52;;;;;;;5.55;3.53;;;9.10;99.90;;;;;;5043720;28;20029;-58
2023/03/18 01:30:19;;;;;;;4.68;2.83;;;9.20;99.90;;;;;;5044780;28;20662;-55
2023/03/18 01:32:45;;;;;;;3.90;2.90;;;9.10;99.90;;;;;;5044996;28;20057;-56
2023/03/18 01:35:11;;;;;;;3.85;2.70;;;9.20;99.90;;;;;;5041315;28;20021;-56
2023/03/18 01:37:38;;;;;;;6.57;3.00;;;9.20;99.90;;;;;;5043219;28;20064;-52
2023/03/18 01:40:06;;;;;;;3.33;2.95;;;9.20;99.90;;;;;;5041118;28;20025;-57
2023/03/18 01:42:32;;;;;;;5.05;3.05;;;9.20;99.90;;;;;;5044849;28;20026;-54
2023/03/18 01:45:24;;;;;;;3.42;2.90;;;9.20;99.90;;;;;;5043283;28;20102;-55
2023/03/18 01:47:50;;;;;;;6.97;3.22;;;9.20;99.90;;;;;;5035917;28;20033;-55
2023/03/18 01:50:26;;;;;;;6.07;3.25;;;9.20;99.90;;;;;;5046586;28;20421;-55
2023/03/18 01:52:58;;;;;;;4.20;2.78;;;9.20;99.90;;;;;;5039234;28;20419;-55
2023/03/18 01:55:27;;;;;;;3.28;2.72;;;9.20;99.90;;;;;;5041318;28;20120;-56
2023/03/18 01:57:54;;;;;;;4.72;2.97;;;9.20;99.90;;;;;;5043871;28;20507;-53
2023/03/18 02:00:20;;;;;;;5.25;2.83;;;9.20;99.90;;;;;;5047561;28;20082;-56
2023/03/18 02:02:48;;;;;;;3.65;2.63;;;9.10;99.90;;;;;;5044629;28;20021;-52
2023/03/18 02:05:18;;;;;;;3.83;2.75;;;9.10;99.90;;;;;;5046768;28;20483;-56
2023/03/18 02:07:44;;;;;;;2.95;2.63;;;9.10;99.90;;;;;;5042433;28;20502;-57
2023/03/18 02:10:18;;;;;;;3.50;2.80;;;9.10;99.90;;;;;;5042145;28;20032;-57
2023/03/18 02:12:49;;;;;;;5.97;3.10;;;9.10;99.90;;;;;;5044555;28;20036;-57
2023/03/18 02:15:20;;;;;;;3.75;2.90;;;9.10;99.90;;;;;;5048748;28;20167;-56
2023/03/18 02:17:50;;;;;;;3.53;2.70;;;9.10;99.90;;;;;;5038642;28;20111;-54
2023/03/18 02:20:39;;;;;;;2.90;2.53;;;9.10;99.90;;;;;;5046058;28;20029;-56
2023/03/18 02:23:08;;;;;;;2.97;2.55;;;9.10;99.90;;;;;;5038533;28;20063;-56
2023/03/18 02:25:52;;;;;;;4.35;2.80;;;9.10;99.90;;;;;;5045951;28;20460;-57
2023/03/18 02:28:23;;;;;;;3.80;2.90;;;9.10;99.90;;;;;;5048584;28;20047;-54
2023/03/18 02:30:56;;;;;;;3.08;2.55;;;9.10;99.90;;;;;;5049904;28;20026;-57
2023/03/18 02:33:25;;;;;;;4.38;2.63;;;9.10;99.90;;;;;;5043292;28;20033;-58
2023/03/18 02:35:56;;;;;;;3.53;3.10;;;9.10;99.90;;;;;;5044707;28;20021;-58
2023/03/18 02:38:22;;;;;;;2.97;2.67;;;9.10;99.90;;;;;;5049861;28;20025;-58
2023/03/18 02:40:47;;;;;;;3.42;2.97;;;9.10;99.90;;;;;;5044132;28;20087;-55
2023/03/18 02:43:26;;;;;;;5.30;3.08;;;9.10;99.90;;;;;;5051605;28;20433;-58
2023/03/18 02:46:13;;;;;;;3.10;2.80;;;9.10;99.90;;;;;;5050546;28;20082;-54
2023/03/18 02:48:43;;;;;;;5.85;2.85;;;9.00;99.90;;;;;;5050929;28;20040;-57
2023/03/18 02:51:11;;;;;;;3.50;2.95;;;9.00;99.90;;;;;;5046487;28;20029;-56
2023/03/18 02:53:38;;;;;;;4.65;3.47;;;9.00;99.90;;;;;;5040510;28;20438;-57
2023/03/18 02:56:04;;;;;;;5.55;2.80;;;9.00;99.90;;;;;;5048824;28;20523;-57
2023/03/18 02:58:31;;;;;;;5.28;3.30;;;9.00;99.90;;;;;;5046334;28;20064;-56
2023/03/18 03:00:56;;;;;;;2.95;2.65;;;9.00;99.90;;;;;;5038128;28;20419;-57
2023/03/18 03:03:24;;;;;;;4.68;3.42;;;9.00;99.90;;;;;;5045885;28;20040;-55
2023/03/18 03:05:49;;;;;;;3.40;2.78;;;8.90;99.90;;;;;;5049842;28;20025;-57
2023/03/18 03:08:15;;;;;;;4.82;2.70;;;8.90;99.90;;;;;;5044096;28;20032;-58
2023/03/18 03:10:41;;;;;;;4.85;3.03;;;8.90;99.90;;;;;;5045975;28;20123;-56
2023/03/18 03:13:08;;;;;;;4.00;3.35;;;8.90;99.90;;;;;;5044098;28;20060;-56
2023/03/18 03:15:38;;;;;;;5.68;3.00;;;8.90;99.90;;;;;;5040637;28;20055;-57
2023/03/18 03:18:04;;;;;;;8.23;3.47;;;8.90;99.90;;;;;;5044599;28;20029;-58
2023/03/18 03:20:34;;;;;;;3.78;3.15;;;8.90;99.90;;;;;;5047675;28;20036;-57
2023/03/18 03:23:00;;;;;;;5.03;3.25;;;8.90;99.90;;;;;;5046223;28;20107;-58
2023/03/18 03:25:27;;;;;;;3.47;3.15;;;8.90;99.90;;;;;;5045852;28;20483;-56
2023/03/18 03:27:53;;;;;;;5.10;2.97;;;8.90;99.90;;;;;;5046073;28;20035;-58
2023/03/18 03:30:19;;;;;;;3.40;2.85;;;8.90;99.90;;;;;;5048399;28;20025;-58
2023/03/18 03:32:45;;;;;;;6.25;2.80;;;8.90;99.90;;;;;;5043265;28;20111;-54
2023/03/18 03:35:13;;;;;;;5.25;2.67;;;8.90;99.90;;;;;;5044676;28;20037;-56
2023/03/18 03:37:39;;;;;;;4.68;3.25;;;8.90;99.90;;;;;;5047001;28;20037;-56
2023/03/18 03:40:05;;;;;;;3.72;3.20;;;8.90;99.90;;;;;;5048770;28;20028;-56
2023/03/18 03:42:31;;;;;;;5.57;3.10;;;9.00;99.90;;;;;;5042097;28;20033;-58
2023/03/18 03:44:57;;;;;;;4.22;3.70;;;9.00;99.90;;;;;;5047101;28;20025;-56
2023/03/18 03:47:22;;;;;;;6.28;3.30;;;9.00;99.90;;;;;;5042378;28;20037;-57
2023/03/18 03:49:48;;;;;;;4.55;3.30;;;9.00;99.90;;;;;;5043556;28;20509;-58
2023/03/18 03:52:13;;;;;;;5.70;2.90;;;9.00;99.90;;;;;;5047614;28;20053;-57
2023/03/18 03:54:40;;;;;;;5.43;3.15;;;9.00;99.90;;;;;;5041311;28;20446;-55
2023/03/18 03:57:06;;;;;;;4.88;3.13;;;9.00;99.90;;;;;;5037409;28;20021;-58
2023/03/18 03:59:32;;;;;;;3.33;2.92;;;9.00;99.90;;;;;;5040830;28;20100;-56
2023/03/18 04:01:58;;;;;;;3.60;3.08;;;9.00;99.90;;;;;;5043521;28;20223;-54
2023/03/18 04:04:23;;;;;;;5.35;2.83;;;8.90;99.90;;;;;;5042989;28;20108;-55
2023/03/18 04:06:49;;;;;;;4.70;3.25;;;8.90;99.90;;;;;;5042386;28;20534;-54
2023/03/18 04:09:16;;;;;;;3.97;2.63;;;8.90;99.90;;;;;;5033314;28;20447;-58
2023/03/18 04:11:43;;;;;;;4.22;2.92;;;8.90;99.90;;;;;;5037525;28;20108;-55
2023/03/18 04:14:09;;;;;;;4.05;3.65;;;8.90;99.90;;;;;;5040568;28;20407;-58
2023/03/18 04:16:34;;;;;;;4.18;3.58;;;8.90;99.90;;;;;;5043586;28;20079;-58
2023/03/18 04:19:00;;;;;;;4.25;3.03;;;8.90;99.90;;;;;;5047421;28;20017;-57
2023/03/18 04:21:26;;;;;;;5.35;3.35;;;8.90;99.90;;;;;;5047556;28;20062;-57
2023/03/18 04:23:52;;;;;;;6.35;3.33;;;8.90;99.90;;;;;;5040303;28;20025;-55
2023/03/18 04:26:17;;;;;;;4.07;2.90;;;8.90;99.90;;;;;;5044278;28;20021;-58
2023/03/18 04:28:43;;;;;;;7.60;3.80;;;8.90;99.90;;;;;;5035929;28;20040;-57
2023/03/18 04:31:09;;;;;;;5.88;3.42;;;8.90;99.90;;;;;;5045814;28;20487;-57
2023/03/18 04:33:34;;;;;;;4.40;3.25;;;8.90;99.90;;;;;;5034144;28;20060;-57
2023/03/18 04:36:00;;;;;;;5.93;3.63;;;8.90;99.90;;;;;;5038525;28;20029;-59
2023/03/18 04:38:27;;;;;;;4.07;3.15;;;8.90;99.90;;;;;;5042898;28;20041;-57
2023/03/18 04:40:53;;;;;;;8.75;4.35;;;8.90;99.90;;;;;;5038203;28;20517;-53
2023/03/18 04:43:19;;;;;;;5.20;3.75;;;8.90;99.90;;;;;;5041852;28;20017;-56
2023/03/18 04:45:44;;;;;;;4.88;3.20;;;8.90;99.90;;;;;;5044693;28;20037;-58
2023/03/18 04:48:10;;;;;;;4.78;3.28;;;8.90;99.90;;;;;;5045568;28;20092;-56
2023/03/18 04:50:36;;;;;;;3.60;2.88;;;8.90;99.90;;;;;;5043179;28;20389;-55
2023/03/18 04:53:02;;;;;;;5.82;3.47;;;8.80;99.90;;;;;;5036606;28;20025;-52
2023/03/18 04:55:28;;;;;;;5.78;3.60;;;8.90;99.90;;;;;;5044104;28;20091;-58
2023/03/18 04:57:54;;;;;;;3.90;3.58;;;8.80;99.90;;;;;;5041831;28;20090;-58
2023/03/18 05:00:21;;;;;;;6.97;4.32;;;8.80;99.90;;;;;;5046386;28;20070;-55
2023/03/18 05:02:47;;;;;;;6.53;4.00;;;8.90;99.90;;;;;;5037230;28;20029;-58
2023/03/18 05:05:13;;;;;;;6.80;5.13;;;8.90;99.90;;;;;;5042618;28;20032;-57
2023/03/18 05:07:39;;;;;;;5.82;4.72;;;8.90;99.90;;;;;;5043761;28;20399;-57
2023/03/18 05:10:05;;;;;;;11.98;5.40;;;8.90;99.90;;;;;;5043218;28;20021;-58
2023/03/18 05:12:32;;;;;;;5.55;4.78;;;8.90;99.90;;;;;;5045631;28;20523;-58
2023/03/18 05:14:58;;;;;;;6.80;4.68;;;8.90;99.90;;;;;;5042173;28;20513;-56
2023/03/18 05:17:24;;;;;;;7.63;5.28;;;8.90;99.90;;;;;;5044685;28;20033;-57
2023/03/18 05:19:50;;;;;;;8.48;5.65;;;9.00;99.90;;;;;;5036589;28;20468;-55
2023/03/18 05:22:17;;;;;;;7.70;4.95;;;9.00;99.90;;;;;;5036661;28;20021;-56
2023/03/18 05:24:47;;;;;;;6.38;4.90;;;9.00;99.90;;;;;;5047548;28;20013;-57
2023/03/18 05:27:14;;;;;;;7.75;5.88;;;9.00;99.90;;;;;;5043451;28;20028;-57
2023/03/18 05:29:40;;;;;;;11.77;6.13;;;9.10;99.90;;;;;;5042934;28;20033;-57
2023/03/18 05:32:06;;;;;;;7.82;6.53;;;9.10;99.90;;;;;;5042251;28;20021;-56
2023/03/18 05:34:36;;;;;;;7.13;5.65;;;9.10;99.90;;;;;;5041973;28;20135;-55
2023/03/18 05:37:04;;;;;;;11.10;6.80;;;9.20;99.90;;;;;;5037898;28;20038;-56
2023/03/18 05:39:31;;;;;;;9.95;6.18;;;9.20;99.90;;;;;;5043029;28;20033;-58
2023/03/18 05:41:56;;;;;;;11.73;6.50;;;9.20;99.90;;;;;;5042921;28;20025;-56
2023/03/18 05:44:22;;;;;;;9.15;6.00;;;9.20;99.90;;;;;;5043409;28;20570;-55
2023/03/18 05:46:51;;;;;;;9.38;6.68;;;9.20;99.90;;;;;;5047846;28;20130;-57
2023/03/18 05:49:16;;;;;;;13.02;6.93;;;9.30;99.90;;;;;;5043405;28;20048;-57
2023/03/18 05:51:43;;;;;;;11.23;8.02;;;9.30;99.90;;;;;;5049124;28;20037;-53
2023/03/18 05:54:09;;;;;;;9.85;7.50;;;9.30;99.90;;;;;;5046530;28;20021;-58
2023/03/18 05:56:35;;;;;;;9.27;7.22;;;9.30;99.90;;;;;;5045403;28;20044;-58
2023/03/18 05:59:01;;;;;;;10.00;6.53;;;9.30;99.90;;;;;;5047004;28;20034;-58
2023/03/18 06:01:26;;;;;;;11.23;7.03;;;9.30;99.90;;;;;;5046527;28;20036;-55
2023/03/18 06:03:52;;;;;;;12.25;7.90;;;9.30;99.90;;;;;;5049475;28;20353;-57
2023/03/18 06:06:18;;;;;;;13.13;7.38;;;9.30;99.90;;;;;;5044691;28;20100;-57
2023/03/18 06:08:45;;;;;;;8.40;6.75;;;9.30;99.90;;;;;;5047709;28;20461;-57
2023/03/18 06:11:11;;;;;;;10.70;7.72;;;9.40;99.90;;;;;;5046978;28;20025;-58
2023/03/18 06:13:36;;;;;;;12.52;7.30;;;9.40;99.90;;;;;;5045021;28;20031;-57
2023/03/18 06:16:02;;;;;;;9.90;7.50;;;9.40;99.90;;;;;;5049733;28;20021;-56
2023/03/18 06:18:28;;;;;;;11.07;7.55;;;9.40;99.90;;;;;;5044505;28;20051;-54
2023/03/18 06:20:55;;;;;;;11.77;7.93;;;9.30;99.90;;;;;;5046476;28;20021;-53
2023/03/18 06:23:21;;;;;;;10.07;7.18;;;9.40;99.90;;;;;;5046943;28;20035;-56
2023/03/18 06:25:48;;;;;;;12.80;6.93;;;9.40;99.90;;;;;;5045546;28;20104;-57
2023/03/18 06:28:14;;;;;;;11.65;7.97;;;9.40;99.90;;;;;;5048127;28;20052;-55
2023/03/18 06:30:39;;;;;;;9.95;7.70;;;9.40;99.90;;;;;;5038334;28;20507;-58
2023/03/18 06:33:05;;;;;;;8.40;7.18;;;9.40;99.90;;;;;;5045911;28;20525;-59
2023/03/18 06:35:30;;;;;;;10.38;6.88;;;9.40;99.90;;;;;;5042816;28;20029;-58
2023/03/18 06:37:56;;;;;;;11.65;8.02;;;9.40;99.90;;;;;;5049731;28;20025;-55
2023/03/18 06:40:23;;;;;;;10.38;7.95;;;9.40;99.90;;;;;;5050795;28;20024;-55
2023/03/18 06:42:49;;;;;;;10.40;7.90;;;9.40;99.90;;;;;;5043012;28;20021;-54
2023/03/18 06:45:15;;;;;;;8.63;7.18;;;9.40;99.90;;;;;;5048231;28;20262;-58
2023/03/18 06:47:42;;;;;;;13.63;7.93;;;9.50;99.90;;;;;;5042529;28;20120;-54
2023/03/18 06:50:09;;;;;;;13.90;8.25;;;9.50;99.90;;;;;;5045701;28;20166;-58
2023/03/18 06:52:35;;;;;;;9.85;7.10;;;9.50;99.90;;;;;;5050398;28;20530;-57
2023/03/18 06:55:02;;;;;;;12.18;8.13;;;9.50;99.90;;;;;;5042771;28;20155;-56
2023/03/18 06:57:27;;;;;;;8.93;7.18;;;9.50;99.90;;;;;;5042562;28;20514;-59
2023/03/18 06:59:53;;;;;;;9.10;7.25;;;9.50;99.90;;;;;;5040083;28;20029;-57
2023/03/18 07:02:22;;;;;;;14.23;8.68;;;9.60;99.90;;;;;;5044559;28;20032;-56
2023/03/18 07:04:48;;;;;;;12.68;8.85;;;9.70;99.90;;;;;;5041435;28;20013;-58
2023/03/18 07:07:13;;;;;;;8.82;7.93;;;9.70;99.90;;;;;;5046394;28;20029;-58
2023/03/18 07:09:39;;;;;;;12.07;8.13;;;9.80;99.90;;;;;;5048686;28;20033;-58
2023/03/18 07:12:05;;;;;;;9.77;7.47;;;9.80;99.90;;;;;;5045209;28;20491;-55
2023/03/18 07:14:31;;;;;;;10.23;8.00;;;9.80;99.90;;;;;;5048997;28;20037;-58
2023/03/18 07:16:57;;;;;;;10.05;7.70;;;9.80;99.90;;;;;;5045966;28;20037;-55
2023/03/18 07:19:23;;;;;;;9.63;7.75;;;9.80;99.90;;;;;;5038506;28;20033;-58
2023/03/18 07:21:48;;;;;;;12.68;8.23;;;9.90;99.90;;;;;;5049437;28;20039;-58
2023/03/18 07:24:15;;;;;;;10.18;8.02;;;9.90;99.90;;;;;;5042679;28;20029;-56
2023/03/18 07:26:41;;;;;;;14.07;8.55;;;10.00;99.90;;;;;;5048260;28;20025;-58
2023/03/18 07:29:07;;;;;;;13.43;8.85;;;10.00;99.90;;;;;;5045218;28;20060;-57
2023/03/18 07:31:32;;;;;;;11.88;8.63;;;10.10;99.90;;;;;;5044122;28;20013;-56
2023/03/18 07:33:58;;;;;;;13.45;7.80;;;10.10;99.90;;;;;;5046748;28;20025;-59
2023/03/18 07:36:24;;;;;;;10.13;8.20;;;10.20;99.90;;;;;;5048708;28;20035;-54
2023/03/18 07:38:50;;;;;;;13.18;8.10;;;10.30;99.90;;;;;;5041739;28;20115;-56
2023/03/18 07:41:15;;;;;;;13.63;8.77;;;10.30;99.90;;;;;;5037995;28;20036;-58
2023/03/18 07:43:42;;;;;;;10.70;8.02;;;10.50;99.90;;;;;;5044143;28;20022;-58
2023/03/18 07:46:08;;;;;;;9.95;8.52;;;10.60;99.90;;;;;;5048727;28;20502;-57
2023/03/18 07:48:33;;;;;;;14.10;9.57;;;10.70;99.90;;;;;;5042630;28;20055;-56
2023/03/18 07:51:00;;;;;;;11.77;8.55;;;10.90;99.90;;;;;;5038880;28;20487;-55
2023/03/18 07:53:26;;;;;;;10.70;8.63;;;11.00;99.90;;;;;;5047177;28;20029;-56
2023/03/18 07:55:52;;;;;;;14.40;8.50;;;11.00;99.90;;;;;;5045465;28;20392;-59
2023/03/18 07:58:18;;;;;;;12.23;8.68;;;11.10;99.90;;;;;;5049382;28;20067;-57
2023/03/18 08:00:43;;;;;;;9.75;8.00;;;11.10;99.90;;;;;;5043981;28;20067;-58
2023/03/18 08:03:11;;;;;;;10.57;8.50;;;11.20;99.90;;;;;;5042377;28;20033;-56
2023/03/18 08:05:37;;;;;;;10.50;8.57;;;11.20;99.90;;;;;;5044903;28;20119;-56
2023/03/18 08:08:04;;;;;;;13.63;9.02;;;11.30;99.90;;;;;;5037168;28;20156;-54
2023/03/18 08:10:30;;;;;;;12.25;8.38;;;11.30;99.90;;;;;;5040317;28;20041;-55
2023/03/18 08:12:56;;;;;;;12.25;8.75;;;11.40;99.90;;;;;;5045063;28;20418;-52
2023/03/18 08:15:22;;;;;;;11.93;8.82;;;11.30;99.90;;;;;;5048621;28;20021;-53
2023/03/18 08:17:48;;;;;;;12.60;9.63;;;11.40;99.90;;;;;;5043270;28;20041;-57
2023/03/18 08:20:14;;;;;;;9.40;8.23;;;11.40;99.90;;;;;;5042023;28;20095;-54
2023/03/18 08:22:40;;;;;;;12.23;9.18;;;11.40;99.90;;;;;;5040459;28;20366;-55
2023/03/18 08:25:06;;;;;;;10.23;8.80;;;11.50;99.90;;;;;;5047006;28;20386;-58
2023/03/18 08:27:32;;;;;;;10.73;8.27;;;11.50;99.90;;;;;;5049034;28;20509;-57
2023/03/18 08:29:57;;;;;;;13.05;8.43;;;11.50;99.90;;;;;;5045814;28;20100;-58
2023/03/18 08:32:24;;;;;;;12.10;8.52;;;11.50;99.90;;;;;;5044467;28;20104;-58
2023/03/18 08:34:50;;;;;;;10.38;8.43;;;11.60;99.90;;;;;;5046292;28;20070;-56
2023/03/18 08:37:15;;;;;;;11.55;8.05;;;11.60;99.90;;;;;;5049985;28;20025;-56
2023/03/18 08:39:43;;;;;;;12.48;8.90;;;11.70;99.90;;;;;;5044914;28;20079;-56
2023/03/18 08:42:09;;;;;;;11.32;8.23;;;11.60;99.90;;;;;;5048589;28;20100;-54
2023/03/18 08:44:35;;;;;;;10.40;8.00;;;11.50;99.90;;;;;;5043758;28;20029;-57
2023/03/18 08:47:01;;;;;;;15.82;8.63;;;11.50;99.90;;;;;;5048933;28;20023;-55
2023/03/18 08:49:26;;;;;;;14.32;8.50;;;11.50;99.90;;;;;;5039647;28;20040;-58
2023/03/18 08:51:52;;;;;;;10.25;8.50;;;11.50;99.90;;;;;;5047612;28;20017;-59
2023/03/18 08:54:19;;;;;;;11.68;8.30;;;11.50;99.90;;;;;;5046227;28;20478;-60
2023/03/18 08:56:44;;;;;;;10.40;8.55;;;11.50;99.90;;;;;;5043982;28;20068;-57
2023/03/18 08:59:10;;;;;;;13.23;9.02;;;11.50;99.90;;;;;;5046534;28;20055;-57
2023/03/18 09:01:36;;;;;;;12.52;8.57;;;11.50;99.90;;;;;;5043512;28;20017;-58
2023/03/18 09:04:02;;;;;;;10.73;8.60;;;11.40;99.90;;;;;;5040412;28;20090;-58
2023/03/18 09:06:28;;;;;;;12.30;8.45;;;11.40;99.90;;;;;;5043264;28;20505;-58
2023/03/18 09:08:54;;;;;;;11.27;8.15;;;11.30;99.90;;;;;;5035287;28;20074;-57
2023/03/18 09:11:20;;;;;;;10.93;8.77;;;11.30;99.90;;;;;;5040662;28;20025;-56
2023/03/18 09:13:46;;;;;;;10.45;9.15;;;11.30;99.90;;;;;;5044752;28;20048;-57
2023/03/18 09:16:12;;;;;;;11.80;8.82;;;11.30;99.90;;;;;;5048492;28;20554;-56
2023/03/18 09:18:38;;;;;;;11.65;8.82;;;11.30;99.90;;;;;;5041854;28;20374;-55
2023/03/18 09:21:04;;;;;;;15.20;8.70;;;11.20;99.90;;;;;;5048927;28;20021;-58
2023/03/18 09:23:31;;;;;;;11.05;8.07;;;11.20;99.90;;;;;;5047061;28;20044;-58
2023/03/18 09:25:57;;;;;;;12.88;9.15;;;11.20;99.90;;;;;;5037109;28;20026;-57
2023/03/18 09:28:22;;;;;;;11.85;8.77;;;11.20;99.90;;;;;;5040641;28;20423;-55
2023/03/18 09:30:49;;;;;;;13.40;8.98;;;11.10;99.90;;;;;;5041032;28;20047;-55
2023/03/18 09:33:15;;;;;;;11.30;8.15;;;11.10;99.90;;;;;;5037182;28;20021;-58
2023/03/18 09:35:41;;;;;;;12.45;10.00;;;11.10;99.90;;;;;;5045460;28;20116;-56
2023/03/18 09:38:09;;;;;;;13.75;9.05;;;11.10;99.90;;;;;;5046673;28;20029;-58
2023/03/18 09:40:36;;;;;;;10.35;8.32;;;11.10;99.90;;;;;;5046119;28;20040;-57
2023/03/18 09:43:18;;;;;;;10.95;8.35;;;11.10;99.90;;;;;;5044402;28;20514;-56
2023/03/18 09:45:53;;;;;;;14.63;8.73;;;11.10;99.90;;;;;;5042347;28;20032;-57
2023/03/18 09:48:49;;;;;;;11.68;9.77;;;11.10;99.90;;;;;;5042871;28;20044;-57
2023/03/18 09:51:15;;;;;;;11.25;8.90;;;11.10;99.90;;;;;;5037555;28;20025;-57
2023/03/18 09:53:56;;;;;;;12.48;9.93;;;11.10;99.90;;;;;;5047530;28;20292;-54
2023/03/18 09:56:31;;;;;;;12.05;8.80;;;11.10;99.90;;;;;;5035181;28;20049;-56
2023/03/18 09:59:23;;;;;;;13.50;9.85;;;11.20;99.90;;;;;;5048155;28;20079;-55
2023/03/18 10:01:53;;;;;;;15.75;9.40;;;11.20;99.90;;;;;;5046537;28;20053;-54
2023/03/18 10:04:40;;;;;;;13.20;9.48;;;11.30;99.90;;;;;;5047558;28;20036;-57
2023/03/18 10:07:13;;;;;;;12.60;9.57;;;11.40;99.90;;;;;;5045499;28;20132;-57
2023/03/18 10:09:45;;;;;;;13.88;9.90;;;11.50;99.90;;;;;;5043727;28;20033;-55
2023/03/18 10:12:34;;;;;;;12.43;10.15;;;11.60;99.90;;;;;;5041744;28;20018;-55
2023/03/18 10:15:29;;;;;;;11.18;8.68;;;11.70;99.90;;;;;;5037016;28;20025;-55
2023/03/18 10:18:02;;;;;;;10.38;9.25;;;11.80;99.90;;;;;;5038400;28;20059;-54
2023/03/18 10:20:58;;;;;;;15.25;10.32;;;12.00;99.90;;;;;;5046282;28;20017;-57
2023/03/18 10:23:23;;;;;;;12.27;10.23;;;12.20;99.90;;;;;;5043147;28;20033;-56
2023/03/18 10:25:53;;;;;;;12.38;9.57;;;12.40;99.90;;;;;;5045410;28;20027;-54
2023/03/18 10:28:40;;;;;;;13.90;10.68;;;12.60;99.90;;;;;;5052480;28;20017;-56
2023/03/18 10:31:21;;;;;;;11.20;8.65;;;12.80;99.90;;;;;;5044527;28;20426;-58
2023/03/18 10:34:05;;;;;;;13.55;9.30;;;12.90;99.90;;;;;;5049070;28;20032;-56
2023/03/18 10:36:38;;;;;;;10.68;9.13;;;12.90;99.90;;;;;;5051394;28;20028;-56
2023/03/18 10:39:12;;;;;;;12.10;8.98;;;12.90;99.90;;;;;;5047227;28;20439;-53
2023/03/18 10:41:39;;;;;;;12.15;8.43;;;13.00;99.90;;;;;;5049926;28;20025;-55
2023/03/18 10:44:18;;;;;;;10.38;8.75;;;13.00;99.90;;;;;;5046525;28;20612;-56
2023/03/18 10:46:46;;;;;;;13.07;8.25;;;13.00;99.90;;;;;;5040362;28;20029;-55
2023/03/18 10:49:22;;;;;;;14.88;8.48;;;13.10;99.90;;;;;;5044424;28;20021;-56
2023/03/18 10:51:58;;;;;;;11.65;7.93;;;13.20;99.90;;;;;;5046243;28;20108;-53
2023/03/18 10:54:40;;;;;;;9.73;7.57;;;13.30;99.90;;;;;;5051912;28;20068;-56
2023/03/18 10:57:08;;;;;;;9.25;7.30;;;13.50;99.90;;;;;;5044666;28;20032;-56
2023/03/18 10:59:34;;;;;;;7.80;6.10;;;13.70;99.90;;;;;;5049984;28;20021;-57
2023/03/18 11:02:13;;;;;;;9.77;6.43;;;14.00;99.90;;;;;;5044044;28;20430;-57
2023/03/18 11:04:47;;;;;;;9.98;6.65;;;14.20;99.90;;;;;;5048718;28;20362;-56
2023/03/18 11:07:17;;;;;;;10.57;5.78;;;14.30;99.90;;;;;;5041212;28;20086;-58
2023/03/18 11:09:44;;;;;;;5.88;4.78;;;14.40;99.90;;;;;;5048740;28;20029;-55
2023/03/18 11:12:17;;;;;;;5.50;4.97;;;14.30;99.90;;;;;;5046191;28;20035;-56
2023/03/18 11:14:50;;;;;;;7.63;5.45;;;14.20;99.90;;;;;;5043852;28;20322;-57
2023/03/18 11:17:34;;;;;;;10.38;6.22;;;14.20;99.90;;;;;;5043080;28;20390;-57
2023/03/18 11:20:20;;;;;;;7.35;5.78;;;13.90;99.90;;;;;;5042636;28;20431;-57
2023/03/18 11:22:47;;;;;;;;;;;13.90;99.90;;;;;;5044428;28;20487;-58
2023/03/18 11:25:17;;;;;;;;;;;13.90;99.90;;;;;;5048678;28;19905;-56
2023/03/18 11:27:44;;;;;;;6.70;5.60;;;13.90;99.90;;;;;;5043648;28;19963;-55
2023/03/18 11:30:16;;;;;;;6.68;5.97;;;13.90;99.90;;;;;;5046984;28;20056;-59
2023/03/18 11:32:57;;;;;;;8.38;5.95;;;14.00;99.90;;;;;;5039150;28;20645;-57
2023/03/18 11:35:40;;;;;;;8.07;5.88;;;14.10;99.90;;;;;;5044913;28;20055;-56
2023/03/18 11:38:14;;;;;;;5.93;4.97;;;14.30;99.90;;;;;;5042313;28;20021;-55
2023/03/18 11:40:39;;;;;;;7.25;5.65;;;14.50;99.90;;;;;;5041693;28;20036;-55
2023/03/18 11:43:19;;;;;;;7.65;5.00;;;14.70;99.90;;;;;;5039491;28;20126;-57
2023/03/18 11:45:47;;;;;;;8.82;5.78;;;14.90;99.90;;;;;;5047431;28;20407;-54
2023/03/18 11:48:23;;;;;;;6.72;4.72;;;15.10;99.90;;;;;;5045202;28;20075;-58
2023/03/18 11:51:12;;;;;;;5.57;4.72;;;15.10;99.90;;;;;;5046410;28;20123;-55
2023/03/18 11:54:03;;;;;;;7.47;5.32;;;15.20;99.90;;;;;;5035129;28;20423;-58
2023/03/18 11:56:41;;;;;;;8.30;5.30;;;15.40;99.90;;;;;;5044841;28;20160;-56
2023/03/18 11:59:31;;;;;;;6.38;5.65;;;15.60;99.90;;;;;;5042934;28;20078;-57
2023/03/18 12:02:37;;;;;;;7.93;6.35;;;15.70;99.90;;;;;;5044799;28;20021;-58
2023/03/18 12:05:37;;;;;;;8.25;6.03;;;15.60;99.90;;;;;;5037856;28;20132;-58
2023/03/18 12:08:06;;;;;;;7.25;5.40;;;15.50;99.90;;;;;;5044187;28;20025;-57
2023/03/18 12:11:15;;;;;;;9.50;6.07;;;15.50;99.90;;;;;;5042819;28;20017;-58
2023/03/18 12:14:02;;;;;;;8.80;6.35;;;15.70;99.90;;;;;;4988267;28;20031;-54
2023/03/18 12:17:06;;;;;;;7.45;6.35;;;15.80;99.90;;;;;;4989063;28;20061;-57
2023/03/18 12:19:47;;;;;;;10.70;6.20;;;15.90;99.90;;;;;;5037395;28;20033;-58
2023/03/18 12:22:36;;;;;;;8.15;6.03;;;16.00;99.90;;;;;;5040044;28;20018;-58
2023/03/18 12:25:40;;;;;;;9.13;6.15;;;16.10;99.90;;;;;;5038492;28;20025;-56
2023/03/18 12:28:36;;;;;;;7.47;5.75;;;16.10;99.90;;;;;;5042928;28;20443;-57
2023/03/18 12:31:31;;;;;;;8.60;6.13;;;16.30;99.90;;;;;;5043165;28;20550;-55
2023/03/18 12:34:01;;;;;;;8.38;5.85;;;16.30;99.90;;;;;;5043033;28;20029;-55
2023/03/18 12:36:52;;;;;;;8.02;6.00;;;16.40;99.90;;;;;;5048359;28;20024;-58
2023/03/18 12:39:42;;;;;;;7.90;5.90;;;16.30;99.90;;;;;;5046303;28;20021;-57
2023/03/18 12:42:25;;;;;;;7.50;5.90;;;16.20;99.90;;;;;;5017335;28;20033;-59
2023/03/18 12:45:07;;;;;;;7.07;5.10;;;16.10;99.90;;;;;;5043506;28;20018;-56
2023/03/18 12:47:44;;;;;;;8.20;6.07;;;16.10;99.90;;;;;;5048498;28;20033;-57
2023/03/18 12:50:31;;;;;;;7.75;5.43;;;16.20;99.90;;;;;;5043835;28;20178;-57
2023/03/18 12:53:03;;;;;;;6.88;5.40;;;16.20;99.90;;;;;;5042693;28;20454;-57
2023/03/18 12:55:42;;;;;;;8.93;5.50;;;16.20;99.90;;;;;;5039743;28;20131;-56
2023/03/18 12:58:27;;;;;;;7.47;5.82;;;16.20;99.90;;;;;;5048448;28;20032;-57
2023/03/18 13:00:59;;;;;;;9.43;5.60;;;16.20;99.90;;;;;;5041524;28;20021;-55
2023/03/18 13:03:33;;;;;;;6.57;5.63;;;16.10;99.90;;;;;;5047593;28;20027;-57
2023/03/18 13:06:04;;;;;;;9.50;5.80;;;16.00;99.90;;;;;;5042179;28;20120;-57